createdAt,value
2022-11-25T00:03:41.940Z,7.15
2022-11-25T00:08:45.993Z,5.45
2022-11-25T00:13:48.621Z,10.73
2022-11-25T00:18:52.657Z,8.10
2022-11-25T00:24:04.242Z,11.32
2022-11-25T00:29:10.890Z,8.00
2022-11-25T00:34:14.063Z,9.57
2022-11-25T00:39:18.539Z,10.55
2022-11-25T00:44:37.039Z,7.25
2022-11-25T00:49:41.330Z,8.10
2022-11-25T00:54:44.806Z,8.40
2022-11-25T00:59:46.553Z,7.40
2022-11-25T01:04:48.314Z,7.30
2022-11-25T01:09:50.736Z,9.25
2022-11-25T01:14:52.425Z,8.00
2022-11-25T01:19:54.096Z,10.05
2022-11-25T01:24:55.740Z,12.32
2022-11-25T01:29:57.516Z,9.75
2022-11-25T01:34:59.202Z,9.68
2022-11-25T01:40:00.875Z,9.00
2022-11-25T01:45:29.113Z,12.50
2022-11-25T01:50:33.691Z,10.00
2022-11-25T01:55:38.493Z,10.95
2022-11-25T02:00:40.428Z,8.85
2022-11-25T02:05:58.793Z,9.68
2022-11-25T02:11:01.928Z,8.00
2022-11-25T02:16:03.704Z,9.07
2022-11-25T02:21:05.770Z,8.98
2022-11-25T02:26:08.187Z,13.00
2022-11-25T02:31:10.281Z,7.97
2022-11-25T02:36:18.902Z,10.77
2022-11-25T02:41:30.221Z,9.02
2022-11-25T02:46:32.020Z,13.25
2022-11-25T02:51:34.062Z,9.02
2022-11-25T02:56:36.120Z,10.30
2022-11-25T03:01:38.942Z,13.27
2022-11-25T03:06:40.669Z,12.23
2022-11-25T03:12:01.173Z,10.85
2022-11-25T03:17:02.850Z,9.27
2022-11-25T03:22:04.770Z,9.70
2022-11-25T03:27:06.432Z,11.30
2022-11-25T03:32:09.648Z,12.95
2022-11-25T03:37:11.687Z,10.32
2022-11-25T03:42:14.022Z,10.00
2022-11-25T03:47:15.766Z,11.30
2022-11-25T03:52:17.476Z,28.92
2022-11-25T03:57:19.130Z,13.80
2022-11-25T04:02:20.837Z,10.88
2022-11-25T04:07:22.584Z,12.57
2022-11-25T04:12:42.666Z,13.52
2022-11-25T04:17:44.343Z,16.60
2022-11-25T04:22:46.079Z,12.50
2022-11-25T04:27:47.822Z,12.10
2022-11-25T04:32:49.651Z,13.75
2022-11-25T04:37:51.295Z,9.88
2022-11-25T04:42:57.592Z,9.60
2022-11-25T04:48:03.406Z,15.82
2022-11-25T04:53:05.081Z,10.90
2022-11-25T04:58:06.771Z,8.32
2022-11-25T05:03:08.508Z,14.80
2022-11-25T05:08:10.181Z,11.30
2022-11-25T05:13:12.095Z,15.13
2022-11-25T05:18:13.807Z,10.20
2022-11-25T05:23:15.466Z,10.23
2022-11-25T05:28:17.135Z,12.50
2022-11-25T05:33:18.791Z,11.45
2022-11-25T05:38:20.477Z,16.23
2022-11-25T05:43:22.183Z,12.88
2022-11-25T05:48:24.039Z,14.68
2022-11-25T05:53:25.710Z,13.27
2022-11-25T05:58:29.412Z,16.00
2022-11-25T06:03:31.227Z,13.60
2022-11-25T06:08:33.019Z,10.38
2022-11-25T06:13:35.320Z,14.10
2022-11-25T06:18:37.986Z,18.38
2022-11-25T06:23:39.850Z,16.45
2022-11-25T06:28:41.708Z,16.55
2022-11-25T06:33:46.385Z,15.27
2022-11-25T06:38:50.750Z,18.35
2022-11-25T06:43:52.479Z,14.75
2022-11-25T06:48:54.360Z,18.98
2022-11-25T06:53:56.042Z,16.95
2022-11-25T06:58:57.726Z,17.95
2022-11-25T07:04:03.139Z,24.70
2022-11-25T07:09:05.654Z,16.08
2022-11-25T07:14:11.267Z,18.70
2022-11-25T07:19:15.576Z,18.30
2022-11-25T07:24:17.963Z,18.30
2022-11-25T07:29:50.999Z,15.55
2022-11-25T07:34:42.226Z,13.32
2022-11-25T07:39:43.873Z,14.13
2022-11-25T07:44:45.539Z,16.50
2022-11-25T07:49:47.271Z,16.02
2022-11-25T07:54:48.980Z,22.00
2022-11-25T07:59:50.651Z,20.95
2022-11-25T08:04:52.341Z,19.35
2022-11-25T08:09:54.022Z,17.63
2022-11-25T08:14:56.398Z,19.35
2022-11-25T08:20:01.324Z,17.88
2022-11-25T08:25:03.001Z,18.67
2022-11-25T08:30:05.809Z,21.88
2022-11-25T08:35:08.065Z,18.25
2022-11-25T08:40:10.614Z,23.13
2022-11-25T08:45:12.753Z,21.60
2022-11-25T08:50:15.617Z,20.13
2022-11-25T08:55:17.416Z,18.15
2022-11-25T09:00:19.508Z,20.77
2022-11-25T09:05:21.285Z,19.50
2022-11-25T09:10:22.936Z,17.08
2022-11-25T09:15:25.116Z,20.40
2022-11-25T09:20:27.830Z,20.73
2022-11-25T09:25:30.218Z,16.67
2022-11-25T09:30:32.446Z,17.45
2022-11-25T09:35:34.181Z,14.82
2022-11-25T09:40:47.781Z,19.15
2022-11-25T09:46:24.504Z,13.98
2022-11-25T09:52:13.156Z,13.07
2022-11-25T09:57:29.595Z,17.85
2022-11-25T10:02:47.939Z,15.00
2022-11-25T10:08:22.243Z,12.10
2022-11-25T10:13:32.617Z,12.50
2022-11-25T10:18:47.721Z,15.25
2022-11-25T10:23:49.366Z,11.75
2022-11-25T10:29:06.047Z,10.55
2022-11-25T10:34:31.576Z,10.35
2022-11-25T10:39:34.929Z,11.93
2022-11-25T10:44:41.600Z,8.98
2022-11-25T10:49:56.305Z,8.52
2022-11-25T10:55:13.798Z,10.65
2022-11-25T11:00:36.671Z,7.15
2022-11-25T11:05:46.802Z,9.65
2022-11-25T11:11:15.847Z,7.70
2022-11-25T11:16:32.330Z,8.52
2022-11-25T11:21:41.753Z,12.63
2022-11-25T11:26:43.409Z,10.63
2022-11-25T11:32:06.268Z,5.60
2022-11-25T11:37:22.646Z,9.40
2022-11-25T11:42:44.612Z,5.93
2022-11-25T11:48:08.164Z,7.15
2022-11-25T11:53:28.260Z,7.47
2022-11-25T11:59:03.657Z,6.25
2022-11-25T12:04:24.286Z,6.55
2022-11-25T12:09:29.768Z,6.07
2022-11-25T12:14:55.566Z,7.93
2022-11-25T12:20:26.966Z,4.88
2022-11-25T12:25:39.160Z,6.43
2022-11-25T12:31:05.156Z,8.40
2022-11-25T12:36:43.461Z,8.18
2022-11-25T12:42:08.209Z,8.15
2022-11-25T12:47:11.670Z,6.80
2022-11-25T12:52:19.122Z,4.40
2022-11-25T12:57:32.649Z,7.13
2022-11-25T13:03:14.075Z,5.63
2022-11-25T13:08:23.563Z,6.43
2022-11-25T13:13:34.550Z,7.15
2022-11-25T13:18:41.261Z,5.05
2022-11-25T13:23:52.060Z,7.30
2022-11-25T13:28:53.887Z,6.43
2022-11-25T13:34:06.500Z,7.95
2022-11-25T13:39:14.928Z,9.05
2022-11-25T13:44:32.527Z,7.00
2022-11-25T13:49:50.406Z,8.68
2022-11-25T13:54:54.291Z,7.47
2022-11-25T14:00:01.780Z,5.65
2022-11-25T14:05:24.695Z,7.22
2022-11-25T14:10:46.986Z,5.82
2022-11-25T14:16:27.278Z,5.40
2022-11-25T14:21:56.506Z,22.85
2022-11-25T14:26:59.829Z,6.63
2022-11-25T14:32:04.790Z,11.43
2022-11-25T14:37:18.421Z,11.10
2022-11-25T14:42:23.308Z,8.52
2022-11-25T14:47:36.003Z,8.95
2022-11-25T14:52:43.815Z,7.93
2022-11-25T14:57:45.790Z,5.35
2022-11-25T15:03:02.379Z,5.40
2022-11-25T15:08:20.219Z,7.35
2022-11-25T15:13:42.250Z,6.32
2022-11-25T15:18:54.504Z,5.00
2022-11-25T15:23:56.594Z,8.10
2022-11-25T15:29:10.273Z,7.45
2022-11-25T15:34:14.528Z,8.85
2022-11-25T15:39:20.899Z,12.07
2022-11-25T15:44:28.665Z,11.50
2022-11-25T15:49:31.825Z,7.78
2022-11-25T15:54:40.032Z,10.52
2022-11-25T15:59:49.139Z,8.73
2022-11-25T16:04:50.777Z,10.23
2022-11-25T16:09:52.540Z,8.55
2022-11-25T16:14:54.209Z,7.70
2022-11-25T16:19:56.058Z,12.55
2022-11-25T16:25:02.448Z,11.63
2022-11-25T16:30:04.599Z,17.15
2022-11-25T16:35:19.267Z,13.40
2022-11-25T16:40:21.028Z,15.63
2022-11-25T16:45:26.518Z,14.02
2022-11-25T16:50:28.330Z,18.65
2022-11-25T16:55:31.158Z,14.38
2022-11-25T17:00:32.844Z,15.18
2022-11-25T17:05:35.098Z,14.73
2022-11-25T17:10:36.904Z,13.38
2022-11-25T17:15:38.697Z,13.00
2022-11-25T17:20:40.688Z,11.23
2022-11-25T17:25:47.618Z,12.35
2022-11-25T17:30:49.566Z,13.63
2022-11-25T17:35:51.447Z,11.25
2022-11-25T17:40:53.093Z,11.80
2022-11-25T17:45:54.950Z,12.20
2022-11-25T17:50:56.740Z,12.23
2022-11-25T17:55:58.441Z,12.88
2022-11-25T18:01:00.286Z,14.35
2022-11-25T18:06:03.119Z,15.00
2022-11-25T18:11:07.391Z,16.70
2022-11-25T18:16:09.558Z,17.10
2022-11-25T18:21:13.160Z,14.75
2022-11-25T18:26:14.977Z,16.63
2022-11-25T18:31:16.787Z,16.23
2022-11-25T18:36:18.500Z,16.38
2022-11-25T18:41:21.772Z,17.25
2022-11-25T18:46:23.491Z,15.40
2022-11-25T18:51:25.319Z,14.98
2022-11-25T18:56:27.227Z,16.80
2022-11-25T19:01:29.169Z,20.45
2022-11-25T19:06:31.705Z,26.27
2022-11-25T19:11:36.232Z,27.30
2022-11-25T19:16:38.619Z,27.70
2022-11-25T19:21:40.488Z,27.05
2022-11-25T19:26:46.382Z,28.10
2022-11-25T19:31:49.596Z,23.23
2022-11-25T19:36:51.389Z,26.15
2022-11-25T19:41:54.537Z,25.10
2022-11-25T19:47:21.836Z,24.80
2022-11-25T19:52:35.801Z,23.35
2022-11-25T19:57:37.573Z,21.33
2022-11-25T20:02:39.591Z,21.95
2022-11-25T20:07:43.550Z,18.48
2022-11-25T20:12:45.954Z,17.20
2022-11-25T20:17:50.815Z,16.55
2022-11-25T20:23:05.244Z,16.30
2022-11-25T20:28:18.531Z,19.25
2022-11-25T20:33:24.434Z,17.23
2022-11-25T20:38:29.162Z,20.52
2022-11-25T20:43:38.674Z,26.73
2022-11-25T20:48:40.806Z,23.23
2022-11-25T20:53:46.461Z,25.23
2022-11-25T20:58:48.542Z,25.83
2022-11-25T21:03:50.705Z,27.42
2022-11-25T21:08:54.431Z,31.50
2022-11-25T21:13:56.222Z,27.67
2022-11-25T21:18:57.984Z,29.20
2022-11-25T21:24:08.330Z,29.33
2022-11-25T21:29:14.655Z,26.55
2022-11-25T21:34:16.593Z,22.23
2022-11-25T21:39:36.472Z,24.35
2022-11-25T21:44:41.246Z,19.13
2022-11-25T21:49:42.958Z,20.73
2022-11-25T21:54:45.346Z,18.77
2022-11-25T21:59:47.806Z,17.20
2022-11-25T22:04:50.692Z,15.98
2022-11-25T22:09:52.440Z,16.55
2022-11-25T22:14:54.927Z,18.02
2022-11-25T22:19:57.559Z,16.30
2022-11-25T22:24:59.287Z,17.88
2022-11-25T22:30:01.290Z,19.95
2022-11-25T22:35:05.610Z,19.10
2022-11-25T22:40:08.351Z,19.73
2022-11-25T22:45:23.162Z,21.75
2022-11-25T22:50:31.026Z,22.15
2022-11-25T22:55:33.657Z,23.67
2022-11-25T23:00:39.517Z,21.25
2022-11-25T23:05:41.306Z,22.70
2022-11-25T23:10:43.562Z,20.20
2022-11-25T23:15:49.490Z,22.23
2022-11-25T23:20:51.228Z,21.65
2022-11-25T23:25:53.737Z,20.25
2022-11-25T23:30:57.330Z,25.35
2022-11-25T23:36:02.499Z,20.35
2022-11-25T23:41:06.499Z,24.05
2022-11-25T23:46:12.888Z,22.83
2022-11-25T23:51:14.620Z,23.30
2022-11-25T23:56:16.386Z,21.65
